sensor_id;sensor_type;location;lat;lon;timestamp;pressure;altitude;pressure_sealevel;temperature;humidity
33404;BME280;19751;40.274;18.268;2023-07-30T00:00:35;100774.72;;;26.66;100.00
33404;BME280;19751;40.274;18.268;2023-07-30T00:03:01;100771.97;;;26.66;100.00
33404;BME280;19751;40.274;18.268;2023-07-30T00:05:26;100770.31;;;26.65;100.00
33404;BME280;19751;40.274;18.268;2023-07-30T00:07:52;100775.84;;;26.65;100.00
33404;BME280;19751;40.274;18.268;2023-07-30T00:10:19;100791.38;;;26.61;100.00
33404;BME280;19751;40.274;18.268;2023-07-30T00:12:44;100779.84;;;26.54;100.00
33404;BME280;19751;40.274;18.268;2023-07-30T00:15:10;100782.63;;;26.54;100.00
33404;BME280;19751;40.274;18.268;2023-07-30T00:17:36;100774.88;;;26.56;100.00
33404;BME280;19751;40.274;18.268;2023-07-30T00:20:02;100781.53;;;26.55;100.00
33404;BME280;19751;40.274;18.268;2023-07-30T00:22:28;100774.31;;;26.54;100.00
33404;BME280;19751;40.274;18.268;2023-07-30T00:24:53;100778.22;;;26.53;100.00
33404;BME280;19751;40.274;18.268;2023-07-30T00:27:19;100779.34;;;26.52;100.00
33404;BME280;19751;40.274;18.268;2023-07-30T00:29:44;100782.69;;;26.49;100.00
33404;BME280;19751;40.274;18.268;2023-07-30T00:32:10;100786.38;;;26.39;100.00
33404;BME280;19751;40.274;18.268;2023-07-30T00:34:36;100791.16;;;26.28;100.00
33404;BME280;19751;40.274;18.268;2023-07-30T00:37:02;100786.91;;;26.17;100.00
33404;BME280;19751;40.274;18.268;2023-07-30T00:39:27;100788.41;;;26.05;100.00
33404;BME280;19751;40.274;18.268;2023-07-30T00:41:52;100772.94;;;26.03;100.00
33404;BME280;19751;40.274;18.268;2023-07-30T00:44:18;100780.91;;;26.10;100.00
33404;BME280;19751;40.274;18.268;2023-07-30T00:46:44;100775.84;;;26.17;100.00
33404;BME280;19751;40.274;18.268;2023-07-30T00:49:09;100772.78;;;26.19;100.00
33404;BME280;19751;40.274;18.268;2023-07-30T00:51:35;100767.56;;;26.17;100.00
33404;BME280;19751;40.274;18.268;2023-07-30T00:54:01;100773.09;;;26.17;100.00
33404;BME280;19751;40.274;18.268;2023-07-30T00:56:26;100769.78;;;26.15;100.00
33404;BME280;19751;40.274;18.268;2023-07-30T00:58:52;100770.09;;;26.14;100.00
33404;BME280;19751;40.274;18.268;2023-07-30T01:01:18;100762.69;;;26.09;100.00
33404;BME280;19751;40.274;18.268;2023-07-30T01:03:44;100760.50;;;26.06;100.00
33404;BME280;19751;40.274;18.268;2023-07-30T01:06:10;100758.31;;;26.03;100.00
33404;BME280;19751;40.274;18.268;2023-07-30T01:08:35;100766.09;;;26.01;100.00
33404;BME280;19751;40.274;18.268;2023-07-30T01:11:02;100771.88;;;25.99;100.00
33404;BME280;19751;40.274;18.268;2023-07-30T01:13:28;100771.06;;;25.99;100.00
33404;BME280;19751;40.274;18.268;2023-07-30T01:15:54;100767.19;;;26.00;100.00
33404;BME280;19751;40.274;18.268;2023-07-30T01:18:19;100774.66;;;25.99;100.00
33404;BME280;19751;40.274;18.268;2023-07-30T01:20:45;100769.13;;;25.99;100.00
33404;BME280;19751;40.274;18.268;2023-07-30T01:23:10;100768.56;;;26.02;100.00
33404;BME280;19751;40.274;18.268;2023-07-30T01:25:37;100771.00;;;26.04;100.00
33404;BME280;19751;40.274;18.268;2023-07-30T01:28:04;100775.13;;;26.07;100.00
33404;BME280;19751;40.274;18.268;2023-07-30T01:30:43;100772.13;;;26.03;100.00
33404;BME280;19751;40.274;18.268;2023-07-30T01:33:11;100777.16;;;25.96;100.00
33404;BME280;19751;40.274;18.268;2023-07-30T01:35:38;100777.78;;;25.93;100.00
33404;BME280;19751;40.274;18.268;2023-07-30T01:38:04;100783.03;;;25.89;100.00
33404;BME280;19751;40.274;18.268;2023-07-30T01:40:34;100790.78;;;25.87;100.00
33404;BME280;19751;40.274;18.268;2023-07-30T01:43:00;100793.88;;;25.81;100.00
33404;BME280;19751;40.274;18.268;2023-07-30T01:45:25;100793.91;;;25.75;100.00
33404;BME280;19751;40.274;18.268;2023-07-30T01:47:52;100793.09;;;25.70;100.00
33404;BME280;19751;40.274;18.268;2023-07-30T01:50:17;100783.25;;;25.64;100.00
33404;BME280;19751;40.274;18.268;2023-07-30T01:52:43;100782.44;;;25.58;100.00
33404;BME280;19751;40.274;18.268;2023-07-30T01:55:08;100788.88;;;25.48;100.00
33404;BME280;19751;40.274;18.268;2023-07-30T01:57:34;100790.88;;;25.43;100.00
33404;BME280;19751;40.274;18.268;2023-07-30T02:00:00;100779.78;;;25.48;100.00
33404;BME280;19751;40.274;18.268;2023-07-30T02:02:25;100784.97;;;25.54;100.00
33404;BME280;19751;40.274;18.268;2023-07-30T02:04:51;100780.50;;;25.59;100.00
33404;BME280;19751;40.274;18.268;2023-07-30T02:07:16;100786.28;;;25.62;100.00
33404;BME280;19751;40.274;18.268;2023-07-30T02:09:43;100788.75;;;25.64;100.00
33404;BME280;19751;40.274;18.268;2023-07-30T02:12:08;100789.59;;;25.64;100.00
33404;BME280;19751;40.274;18.268;2023-07-30T02:14:34;100792.88;;;25.66;100.00
33404;BME280;19751;40.274;18.268;2023-07-30T02:16:59;100793.94;;;25.70;100.00
33404;BME280;19751;40.274;18.268;2023-07-30T02:19:25;100784.50;;;25.76;100.00
33404;BME280;19751;40.274;18.268;2023-07-30T02:21:50;100789.22;;;25.76;100.00
33404;BME280;19751;40.274;18.268;2023-07-30T02:24:16;100792.78;;;25.76;100.00
33404;BME280;19751;40.274;18.268;2023-07-30T02:26:41;100791.16;;;25.70;100.00
33404;BME280;19751;40.274;18.268;2023-07-30T02:29:07;100791.22;;;25.65;100.00
33404;BME280;19751;40.274;18.268;2023-07-30T02:31:32;100793.78;;;25.57;100.00
33404;BME280;19751;40.274;18.268;2023-07-30T02:33:58;100794.09;;;25.50;100.00
33404;BME280;19751;40.274;18.268;2023-07-30T02:36:24;100788.94;;;25.43;100.00
33404;BME280;19751;40.274;18.268;2023-07-30T02:38:50;100793.63;;;25.38;100.00
33404;BME280;19751;40.274;18.268;2023-07-30T02:41:16;100787.59;;;25.36;100.00
33404;BME280;19751;40.274;18.268;2023-07-30T02:43:42;100794.75;;;25.37;100.00
33404;BME280;19751;40.274;18.268;2023-07-30T02:46:08;100792.56;;;25.39;100.00
33404;BME280;19751;40.274;18.268;2023-07-30T02:48:33;100796.38;;;25.43;100.00
33404;BME280;19751;40.274;18.268;2023-07-30T02:50:59;100799.09;;;25.48;100.00
33404;BME280;19751;40.274;18.268;2023-07-30T02:53:24;100800.44;;;25.50;100.00
33404;BME280;19751;40.274;18.268;2023-07-30T02:55:50;100791.63;;;25.48;100.00
33404;BME280;19751;40.274;18.268;2023-07-30T02:58:15;100795.25;;;25.44;100.00
33404;BME280;19751;40.274;18.268;2023-07-30T03:00:41;100793.88;;;25.41;100.00
33404;BME280;19751;40.274;18.268;2023-07-30T03:03:06;100784.81;;;25.41;100.00
33404;BME280;19751;40.274;18.268;2023-07-30T03:05:32;100790.06;;;25.37;100.00
33404;BME280;19751;40.274;18.268;2023-07-30T03:07:57;100792.00;;;25.37;100.00
33404;BME280;19751;40.274;18.268;2023-07-30T03:10:23;100796.44;;;25.33;100.00
33404;BME280;19751;40.274;18.268;2023-07-30T03:12:48;100797.56;;;25.32;100.00
33404;BME280;19751;40.274;18.268;2023-07-30T03:15:14;100794.78;;;25.32;100.00
33404;BME280;19751;40.274;18.268;2023-07-30T03:17:39;100799.50;;;25.31;100.00
33404;BME280;19751;40.274;18.268;2023-07-30T03:20:05;100798.41;;;25.27;100.00
33404;BME280;19751;40.274;18.268;2023-07-30T03:22:31;100799.50;;;25.31;100.00
33404;BME280;19751;40.274;18.268;2023-07-30T03:24:57;100798.06;;;25.34;100.00
33404;BME280;19751;40.274;18.268;2023-07-30T03:27:22;100801.69;;;25.34;100.00
33404;BME280;19751;40.274;18.268;2023-07-30T03:29:48;100800.88;;;25.28;100.00
33404;BME280;19751;40.274;18.268;2023-07-30T03:32:13;100806.19;;;25.20;100.00
33404;BME280;19751;40.274;18.268;2023-07-30T03:34:39;100806.50;;;25.13;100.00
33404;BME280;19751;40.274;18.268;2023-07-30T03:37:04;100814.22;;;25.11;100.00
33404;BME280;19751;40.274;18.268;2023-07-30T03:39:30;100809.25;;;25.08;100.00
33404;BME280;19751;40.274;18.268;2023-07-30T03:41:55;100805.97;;;25.06;100.00
33404;BME280;19751;40.274;18.268;2023-07-30T03:44:21;100801.28;;;25.07;100.00
33404;BME280;19751;40.274;18.268;2023-07-30T03:46:46;100803.22;;;25.06;100.00
33404;BME280;19751;40.274;18.268;2023-07-30T03:49:12;100814.50;;;25.04;100.00
33404;BME280;19751;40.274;18.268;2023-07-30T03:51:37;100803.25;;;25.01;100.00
33404;BME280;19751;40.274;18.268;2023-07-30T03:54:06;100799.63;;;25.00;100.00
33404;BME280;19751;40.274;18.268;2023-07-30T03:56:31;100805.16;;;25.00;100.00
33404;BME280;19751;40.274;18.268;2023-07-30T03:58:57;100821.41;;;25.02;100.00
33404;BME280;19751;40.274;18.268;2023-07-30T04:01:23;100818.38;;;25.03;100.00
33404;BME280;19751;40.274;18.268;2023-07-30T04:03:48;100815.59;;;25.03;100.00
33404;BME280;19751;40.274;18.268;2023-07-30T04:06:14;100817.53;;;25.03;100.00
33404;BME280;19751;40.274;18.268;2023-07-30T04:08:39;100818.09;;;25.00;100.00
33404;BME280;19751;40.274;18.268;2023-07-30T04:11:05;100822.22;;;25.02;100.00
33404;BME280;19751;40.274;18.268;2023-07-30T04:13:31;100815.34;;;25.10;100.00
33404;BME280;19751;40.274;18.268;2023-07-30T04:15:56;100813.66;;;25.14;100.00
33404;BME280;19751;40.274;18.268;2023-07-30T04:18:21;100810.31;;;25.22;100.00
33404;BME280;19751;40.274;18.268;2023-07-30T04:20:48;100809.69;;;25.31;100.00
33404;BME280;19751;40.274;18.268;2023-07-30T04:23:13;100808.00;;;25.35;100.00
33404;BME280;19751;40.274;18.268;2023-07-30T04:25:39;100815.16;;;25.36;100.00
33404;BME280;19751;40.274;18.268;2023-07-30T04:28:04;100823.16;;;25.37;100.00
33404;BME280;19751;40.274;18.268;2023-07-30T04:30:30;100820.13;;;25.39;100.00
33404;BME280;19751;40.274;18.268;2023-07-30T04:32:55;100818.19;;;25.39;100.00
33404;BME280;19751;40.274;18.268;2023-07-30T04:35:21;100827.84;;;25.37;100.00
33404;BME280;19751;40.274;18.268;2023-07-30T04:37:46;100826.75;;;25.33;100.00
33404;BME280;19751;40.274;18.268;2023-07-30T04:40:12;100818.50;;;25.33;100.00
33404;BME280;19751;40.274;18.268;2023-07-30T04:42:37;100814.59;;;25.39;99.29
33404;BME280;19751;40.274;18.268;2023-07-30T04:45:03;100815.09;;;25.46;97.50
33404;BME280;19751;40.274;18.268;2023-07-30T04:47:29;100813.13;;;25.51;96.40
33404;BME280;19751;40.274;18.268;2023-07-30T04:49:54;100810.84;;;25.59;94.25
33404;BME280;19751;40.274;18.268;2023-07-30T04:52:20;100813.84;;;25.67;93.25
33404;BME280;19751;40.274;18.268;2023-07-30T04:54:45;100820.38;;;25.76;92.13
33404;BME280;19751;40.274;18.268;2023-07-30T04:57:11;100816.47;;;25.83;89.99
33404;BME280;19751;40.274;18.268;2023-07-30T04:59:36;100816.41;;;25.88;87.91
33404;BME280;19751;40.274;18.268;2023-07-30T05:02:02;100814.47;;;25.93;86.84
33404;BME280;19751;40.274;18.268;2023-07-30T05:04:28;100813.34;;;25.94;85.84
33404;BME280;19751;40.274;18.268;2023-07-30T05:06:53;100812.19;;;26.00;84.94
33404;BME280;19751;40.274;18.268;2023-07-30T05:09:18;100813.53;;;26.03;84.59
33404;BME280;19751;40.274;18.268;2023-07-30T05:11:44;100815.41;;;26.08;85.15
33404;BME280;19751;40.274;18.268;2023-07-30T05:14:09;100822.00;;;26.12;86.32
33404;BME280;19751;40.274;18.268;2023-07-30T05:16:35;100811.19;;;26.15;86.48
33404;BME280;19751;40.274;18.268;2023-07-30T05:19:01;100814.50;;;26.17;86.76
33404;BME280;19751;40.274;18.268;2023-07-30T05:21:27;100811.13;;;26.20;87.21
33404;BME280;19751;40.274;18.268;2023-07-30T05:23:53;100816.09;;;26.23;87.22
33404;BME280;19751;40.274;18.268;2023-07-30T05:26:18;100816.31;;;26.27;87.75
33404;BME280;19751;40.274;18.268;2023-07-30T05:28:44;100815.44;;;26.32;88.54
33404;BME280;19751;40.274;18.268;2023-07-30T05:31:09;100818.44;;;26.35;89.38
33404;BME280;19751;40.274;18.268;2023-07-30T05:33:35;100816.50;;;26.36;91.60
33404;BME280;19751;40.274;18.268;2023-07-30T05:36:00;100827.78;;;26.39;93.35
33404;BME280;19751;40.274;18.268;2023-07-30T05:38:26;100829.66;;;26.44;96.83
33404;BME280;19751;40.274;18.268;2023-07-30T05:40:51;100824.94;;;26.49;98.34
33404;BME280;19751;40.274;18.268;2023-07-30T05:43:16;100826.81;;;26.54;100.00
33404;BME280;19751;40.274;18.268;2023-07-30T05:45:43;100837.00;;;26.59;100.00
33404;BME280;19751;40.274;18.268;2023-07-30T05:48:08;100826.69;;;26.64;100.00
33404;BME280;19751;40.274;18.268;2023-07-30T05:50:34;100821.66;;;26.71;100.00
33404;BME280;19751;40.274;18.268;2023-07-30T05:52:59;100822.41;;;26.77;100.00
33404;BME280;19751;40.274;18.268;2023-07-30T05:55:25;100825.63;;;26.84;100.00
33404;BME280;19751;40.274;18.268;2023-07-30T05:57:50;100819.72;;;26.91;100.00
33404;BME280;19751;40.274;18.268;2023-07-30T06:00:18;100821.59;;;26.95;100.00
33404;BME280;19751;40.274;18.268;2023-07-30T06:02:44;100820.41;;;27.01;100.00
33404;BME280;19751;40.274;18.268;2023-07-30T06:05:09;100825.06;;;27.06;100.00
33404;BME280;19751;40.274;18.268;2023-07-30T06:07:35;100826.13;;;27.10;100.00
33404;BME280;19751;40.274;18.268;2023-07-30T06:10:01;100834.34;;;27.15;100.00
33404;BME280;19751;40.274;18.268;2023-07-30T06:12:26;100820.25;;;27.17;100.00
33404;BME280;19751;40.274;18.268;2023-07-30T06:14:52;100820.44;;;27.20;100.00
33404;BME280;19751;40.274;18.268;2023-07-30T06:17:17;100822.03;;;27.26;100.00
33404;BME280;19751;40.274;18.268;2023-07-30T06:19:42;100827.47;;;27.32;100.00
33404;BME280;19751;40.274;18.268;2023-07-30T06:22:08;100827.38;;;27.37;100.00
33404;BME280;19751;40.274;18.268;2023-07-30T06:24:33;100823.94;;;27.45;100.00
33404;BME280;19751;40.274;18.268;2023-07-30T06:26:59;100824.41;;;27.52;100.00
33404;BME280;19751;40.274;18.268;2023-07-30T06:29:25;100818.78;;;27.57;100.00
33404;BME280;19751;40.274;18.268;2023-07-30T06:31:51;100813.47;;;27.61;100.00
33404;BME280;19751;40.274;18.268;2023-07-30T06:34:16;100812.03;;;27.63;99.28
33404;BME280;19751;40.274;18.268;2023-07-30T06:36:42;100799.25;;;27.67;97.34
33404;BME280;19751;40.274;18.268;2023-07-30T06:39:07;100806.34;;;27.73;94.71
33404;BME280;19751;40.274;18.268;2023-07-30T06:41:33;100808.75;;;27.80;93.99
33404;BME280;19751;40.274;18.268;2023-07-30T06:43:58;100804.47;;;27.88;93.06
33404;BME280;19751;40.274;18.268;2023-07-30T06:46:24;100803.22;;;27.94;93.35
33404;BME280;19751;40.274;18.268;2023-07-30T06:48:49;100799.88;;;27.97;93.91
33404;BME280;19751;40.274;18.268;2023-07-30T06:51:19;100808.06;;;28.02;92.96
33404;BME280;19751;40.274;18.268;2023-07-30T06:53:44;100807.25;;;28.02;86.91
33404;BME280;19751;40.274;18.268;2023-07-30T06:56:10;100808.59;;;28.04;83.46
33404;BME280;19751;40.274;18.268;2023-07-30T06:58:35;100801.94;;;28.05;82.02
33404;BME280;19751;40.274;18.268;2023-07-30T07:01:01;100796.28;;;28.10;81.15
33404;BME280;19751;40.274;18.268;2023-07-30T07:03:26;100794.56;;;28.14;79.82
33404;BME280;19751;40.274;18.268;2023-07-30T07:05:55;100789.22;;;28.18;78.32
33404;BME280;19751;40.274;18.268;2023-07-30T07:08:21;100787.16;;;28.23;75.94
33404;BME280;19751;40.274;18.268;2023-07-30T07:10:47;100786.47;;;28.32;73.49
33404;BME280;19751;40.274;18.268;2023-07-30T07:13:13;100783.31;;;28.38;70.63
33404;BME280;19751;40.274;18.268;2023-07-30T07:15:43;100789.06;;;28.42;69.05
33404;BME280;19751;40.274;18.268;2023-07-30T07:18:09;100791.84;;;28.42;64.51
33404;BME280;19751;40.274;18.268;2023-07-30T07:20:35;100791.19;;;28.45;62.97
33404;BME280;19751;40.274;18.268;2023-07-30T07:23:01;100787.22;;;28.51;61.01
33404;BME280;19751;40.274;18.268;2023-07-30T07:25:26;100791.81;;;28.56;61.54
33404;BME280;19751;40.274;18.268;2023-07-30T07:27:52;100790.09;;;28.60;62.49
33404;BME280;19751;40.274;18.268;2023-07-30T07:30:18;100786.38;;;28.64;58.40
33404;BME280;19751;40.274;18.268;2023-07-30T07:32:43;100784.13;;;28.66;57.29
33404;BME280;19751;40.274;18.268;2023-07-30T07:35:09;100787.28;;;28.73;57.80
33404;BME280;19751;40.274;18.268;2023-07-30T07:37:34;100785.53;;;28.78;57.71
33404;BME280;19751;40.274;18.268;2023-07-30T07:40:00;100778.75;;;28.84;56.37
33404;BME280;19751;40.274;18.268;2023-07-30T07:42:26;100781.41;;;28.89;55.33
33404;BME280;19751;40.274;18.268;2023-07-30T07:44:51;100785.53;;;28.91;52.02
33404;BME280;19751;40.274;18.268;2023-07-30T07:47:16;100779.88;;;28.96;52.24
33404;BME280;19751;40.274;18.268;2023-07-30T07:49:42;100784.00;;;28.99;51.24
33404;BME280;19751;40.274;18.268;2023-07-30T07:52:08;100779.78;;;29.02;51.17
33404;BME280;19751;40.274;18.268;2023-07-30T07:54:34;100786.13;;;29.02;51.74
33404;BME280;19751;40.274;18.268;2023-07-30T07:56:59;100777.81;;;29.02;51.74
33404;BME280;19751;40.274;18.268;2023-07-30T07:59:25;100786.66;;;29.04;51.86
33404;BME280;19751;40.274;18.268;2023-07-30T08:01:50;100783.22;;;29.07;51.56
33404;BME280;19751;40.274;18.268;2023-07-30T08:04:16;100786.19;;;29.11;51.14
33404;BME280;19751;40.274;18.268;2023-07-30T08:06:41;100785.59;;;29.14;51.95
33404;BME280;19751;40.274;18.268;2023-07-30T08:09:07;100778.59;;;29.16;51.82
33404;BME280;19751;40.274;18.268;2023-07-30T08:11:33;100786.28;;;29.19;51.72
33404;BME280;19751;40.274;18.268;2023-07-30T08:13:59;100784.03;;;29.21;51.22
33404;BME280;19751;40.274;18.268;2023-07-30T08:16:24;100792.03;;;29.23;51.83
33404;BME280;19751;40.274;18.268;2023-07-30T08:18:50;100786.88;;;29.30;51.90
33404;BME280;19751;40.274;18.268;2023-07-30T08:21:16;100782.94;;;29.31;51.84
33404;BME280;19751;40.274;18.268;2023-07-30T08:23:43;100788.69;;;29.35;51.98
33404;BME280;19751;40.274;18.268;2023-07-30T08:26:09;100798.66;;;29.36;51.25
33404;BME280;19751;40.274;18.268;2023-07-30T08:28:34;100803.09;;;29.37;52.68
33404;BME280;19751;40.274;18.268;2023-07-30T08:31:03;100805.22;;;29.40;53.42
33404;BME280;19751;40.274;18.268;2023-07-30T08:33:29;100803.25;;;29.40;54.11
33404;BME280;19751;40.274;18.268;2023-07-30T08:35:58;100802.44;;;29.40;53.98
33404;BME280;19751;40.274;18.268;2023-07-30T08:38:24;100805.09;;;29.45;54.09
33404;BME280;19751;40.274;18.268;2023-07-30T08:40:50;100798.91;;;29.48;53.72
33404;BME280;19751;40.274;18.268;2023-07-30T08:43:19;100798.28;;;29.51;54.00
33404;BME280;19751;40.274;18.268;2023-07-30T08:45:45;100805.16;;;29.54;53.19
33404;BME280;19751;40.274;18.268;2023-07-30T08:48:10;100806.50;;;29.56;53.25
33404;BME280;19751;40.274;18.268;2023-07-30T08:50:36;100795.94;;;29.58;53.05
33404;BME280;19751;40.274;18.268;2023-07-30T08:53:03;100806.91;;;29.63;53.10
33404;BME280;19751;40.274;18.268;2023-07-30T08:55:29;100798.75;;;29.67;52.96
33404;BME280;19751;40.274;18.268;2023-07-30T08:57:56;100795.97;;;29.67;52.68
33404;BME280;19751;40.274;18.268;2023-07-30T09:00:25;100808.53;;;29.64;52.38
33404;BME280;19751;40.274;18.268;2023-07-30T09:02:58;100806.06;;;29.63;52.08
33404;BME280;19751;40.274;18.268;2023-07-30T09:05:24;100807.72;;;29.64;51.72
33404;BME280;19751;40.274;18.268;2023-07-30T09:07:50;100807.41;;;29.65;51.14
33404;BME280;19751;40.274;18.268;2023-07-30T09:10:15;100800.38;;;29.68;50.94
33404;BME280;19751;40.274;18.268;2023-07-30T09:12:41;100807.75;;;29.72;50.95
33404;BME280;19751;40.274;18.268;2023-07-30T09:15:07;100806.31;;;29.75;50.37
33404;BME280;19751;40.274;18.268;2023-07-30T09:17:33;100809.59;;;29.77;50.47
33404;BME280;19751;40.274;18.268;2023-07-30T09:19:59;100803.75;;;29.79;50.07
33404;BME280;19751;40.274;18.268;2023-07-30T09:22:30;100806.38;;;29.84;50.24
33404;BME280;19751;40.274;18.268;2023-07-30T09:25:01;100802.44;;;29.85;49.96
33404;BME280;19751;40.274;18.268;2023-07-30T09:27:27;100791.53;;;29.88;49.95
33404;BME280;19751;40.274;18.268;2023-07-30T09:29:58;100798.41;;;29.91;49.91
33404;BME280;19751;40.274;18.268;2023-07-30T09:32:32;100802.84;;;29.92;49.41
33404;BME280;19751;40.274;18.268;2023-07-30T09:35:07;100803.03;;;29.95;49.54
33404;BME280;19751;40.274;18.268;2023-07-30T09:37:36;100808.75;;;29.99;49.52
33404;BME280;19751;40.274;18.268;2023-07-30T09:40:05;100797.13;;;29.97;49.15
33404;BME280;19751;40.274;18.268;2023-07-30T09:42:31;100802.38;;;29.99;49.35
33404;BME280;19751;40.274;18.268;2023-07-30T09:44:59;100802.06;;;30.00;49.46
33404;BME280;19751;40.274;18.268;2023-07-30T09:47:30;100803.22;;;29.99;49.43
33404;BME280;19751;40.274;18.268;2023-07-30T09:49:56;100802.06;;;30.00;48.86
33404;BME280;19751;40.274;18.268;2023-07-30T09:52:22;100800.63;;;30.03;48.73
33404;BME280;19751;40.274;18.268;2023-07-30T09:54:49;100801.59;;;30.07;48.88
33404;BME280;19751;40.274;18.268;2023-07-30T09:57:17;100795.72;;;30.08;49.63
33404;BME280;19751;40.274;18.268;2023-07-30T09:59:43;100797.03;;;30.11;49.75
33404;BME280;19751;40.274;18.268;2023-07-30T10:02:10;100795.47;;;30.18;49.86
33404;BME280;19751;40.274;18.268;2023-07-30T10:04:40;100789.78;;;30.24;51.09
33404;BME280;19751;40.274;18.268;2023-07-30T10:07:11;100785.72;;;30.30;51.46
33404;BME280;19751;40.274;18.268;2023-07-30T10:09:42;100788.16;;;30.31;51.51
33404;BME280;19751;40.274;18.268;2023-07-30T10:12:16;100783.94;;;30.34;51.06
33404;BME280;19751;40.274;18.268;2023-07-30T10:14:43;100783.78;;;30.39;51.12
33404;BME280;19751;40.274;18.268;2023-07-30T10:17:11;100785.59;;;30.43;50.75
33404;BME280;19751;40.274;18.268;2023-07-30T10:19:37;100790.19;;;30.48;50.08
33404;BME280;19751;40.274;18.268;2023-07-30T10:25:03;100781.38;;;30.46;48.42
33404;BME280;19751;40.274;18.268;2023-07-30T10:27:37;100776.28;;;30.48;48.07
33404;BME280;19751;40.274;18.268;2023-07-30T10:30:14;100772.38;;;30.49;48.51
33404;BME280;19751;40.274;18.268;2023-07-30T10:32:42;100765.53;;;30.55;48.63
33404;BME280;19751;40.274;18.268;2023-07-30T10:35:08;100768.31;;;30.64;49.01
33404;BME280;19751;40.274;18.268;2023-07-30T10:37:34;100760.66;;;30.69;49.47
33404;BME280;19751;40.274;18.268;2023-07-30T10:39:59;100762.63;;;30.69;49.66
33404;BME280;19751;40.274;18.268;2023-07-30T10:42:34;100767.03;;;30.70;48.84
33404;BME280;19751;40.274;18.268;2023-07-30T10:45:00;100765.59;;;30.73;48.03
33404;BME280;19751;40.274;18.268;2023-07-30T10:47:27;100763.31;;;30.75;48.02
33404;BME280;19751;40.274;18.268;2023-07-30T10:49:52;100761.81;;;30.77;47.79
33404;BME280;19751;40.274;18.268;2023-07-30T10:52:19;100756.44;;;30.81;47.60
33404;BME280;19751;40.274;18.268;2023-07-30T10:54:49;100752.69;;;30.85;47.84
33404;BME280;19751;40.274;18.268;2023-07-30T10:57:14;100747.47;;;30.92;48.12
33404;BME280;19751;40.274;18.268;2023-07-30T10:59:41;100747.78;;;31.00;48.32
33404;BME280;19751;40.274;18.268;2023-07-30T11:02:06;100756.31;;;31.03;47.88
33404;BME280;19751;40.274;18.268;2023-07-30T11:04:34;100740.91;;;31.06;47.65
33404;BME280;19751;40.274;18.268;2023-07-30T11:07:03;100735.22;;;31.11;47.09
33404;BME280;19751;40.274;18.268;2023-07-30T11:09:29;100727.50;;;31.16;46.48
33404;BME280;19751;40.274;18.268;2023-07-30T11:11:55;100730.09;;;31.22;46.06
33404;BME280;19751;40.274;18.268;2023-07-30T11:14:22;100730.28;;;31.34;46.11
33404;BME280;19751;40.274;18.268;2023-07-30T11:16:55;100727.50;;;31.42;45.63
33404;BME280;19751;40.274;18.268;2023-07-30T11:19:21;100718.31;;;31.51;44.90
33404;BME280;19751;40.274;18.268;2023-07-30T11:21:47;100717.50;;;31.50;44.69
33404;BME280;19751;40.274;18.268;2023-07-30T11:24:12;100716.34;;;31.51;44.09
33404;BME280;19751;40.274;18.268;2023-07-30T11:26:38;100712.09;;;31.54;43.88
33404;BME280;19751;40.274;18.268;2023-07-30T11:29:30;100699.31;;;31.53;44.29
33404;BME280;19751;40.274;18.268;2023-07-30T11:31:57;100706.50;;;31.54;44.80
33404;BME280;19751;40.274;18.268;2023-07-30T11:34:24;100697.47;;;31.65;44.39
33404;BME280;19751;40.274;18.268;2023-07-30T11:36:51;100699.41;;;31.74;43.77
33404;BME280;19751;40.274;18.268;2023-07-30T11:39:18;100699.56;;;31.77;43.84
33404;BME280;19751;40.274;18.268;2023-07-30T11:41:43;100691.34;;;31.81;44.18
33404;BME280;19751;40.274;18.268;2023-07-30T11:44:29;100695.97;;;31.85;43.97
33404;BME280;19751;40.274;18.268;2023-07-30T11:46:55;100691.22;;;31.86;43.63
33404;BME280;19751;40.274;18.268;2023-07-30T11:49:20;100688.09;;;31.87;43.50
33404;BME280;19751;40.274;18.268;2023-07-30T11:51:47;100691.03;;;31.91;43.95
33404;BME280;19751;40.274;18.268;2023-07-30T11:54:22;100685.78;;;31.89;43.78
33404;BME280;19751;40.274;18.268;2023-07-30T11:56:56;100681.31;;;31.97;43.33
33404;BME280;19751;40.274;18.268;2023-07-30T11:59:21;100681.59;;;32.04;42.92
33404;BME280;19751;40.274;18.268;2023-07-30T12:01:47;100678.00;;;32.04;42.64
33404;BME280;19751;40.274;18.268;2023-07-30T12:04:13;100675.38;;;32.07;42.56
33404;BME280;19751;40.274;18.268;2023-07-30T12:07:05;100672.72;;;32.11;41.68
33404;BME280;19751;40.274;18.268;2023-07-30T12:09:35;100671.94;;;32.10;41.34
33404;BME280;19751;40.274;18.268;2023-07-30T12:12:01;100668.44;;;32.13;41.24
33404;BME280;19751;40.274;18.268;2023-07-30T12:15:09;100663.16;;;32.21;40.69
33404;BME280;19751;40.274;18.268;2023-07-30T12:17:35;100668.06;;;32.24;39.84
33404;BME280;19751;40.274;18.268;2023-07-30T12:20:00;100668.22;;;32.27;39.85
33404;BME280;19751;40.274;18.268;2023-07-30T12:22:34;100670.44;;;32.34;39.82
33404;BME280;19751;40.274;18.268;2023-07-30T12:25:04;100673.56;;;32.41;39.50
33404;BME280;19751;40.274;18.268;2023-07-30T12:27:30;100663.38;;;32.45;39.11
33404;BME280;19751;40.274;18.268;2023-07-30T12:29:55;100656.91;;;32.53;39.42
33404;BME280;19751;40.274;18.268;2023-07-30T12:32:21;100661.09;;;32.59;38.58
33404;BME280;19751;40.274;18.268;2023-07-30T12:34:46;100662.91;;;32.64;38.47